createdAt,value
2022-09-27T00:01:46.168Z,11.40
2022-09-27T00:04:14.409Z,11.40
2022-09-27T00:06:43.860Z,11.40
2022-09-27T00:09:12.180Z,11.30
2022-09-27T00:11:42.710Z,11.40
2022-09-27T00:14:12.647Z,11.40
2022-09-27T00:16:42.530Z,11.40
2022-09-27T00:19:15.106Z,11.40
2022-09-27T00:21:45.583Z,11.40
2022-09-27T00:24:14.702Z,11.40
2022-09-27T00:26:43.939Z,11.40
2022-09-27T00:29:12.487Z,11.30
2022-09-27T00:31:41.141Z,11.30
2022-09-27T00:34:14.474Z,11.30
2022-09-27T00:36:43.940Z,11.40
2022-09-27T00:39:12.080Z,11.30
2022-09-27T00:41:40.491Z,11.30
2022-09-27T00:44:41.274Z,11.30
2022-09-27T00:47:13.230Z,11.30
2022-09-27T00:49:44.344Z,11.30
2022-09-27T00:52:20.263Z,11.30
2022-09-27T00:54:53.123Z,11.30
2022-09-27T00:57:24.130Z,11.30
2022-09-27T00:59:56.814Z,11.30
2022-09-27T01:02:25.009Z,11.40
2022-09-27T01:04:54.025Z,11.40
2022-09-27T01:07:23.467Z,11.40
2022-09-27T01:09:51.905Z,11.40
2022-09-27T01:12:28.078Z,11.40
2022-09-27T01:15:09.095Z,11.40
2022-09-27T01:17:48.746Z,11.40
2022-09-27T01:20:37.736Z,11.40
2022-09-27T01:23:26.208Z,11.40
2022-09-27T01:26:11.037Z,11.40
2022-09-27T01:28:52.393Z,11.40
2022-09-27T01:31:30.633Z,11.40
2022-09-27T01:34:07.002Z,11.40
2022-09-27T01:36:44.140Z,11.40
2022-09-27T01:39:29.585Z,11.40
2022-09-27T01:42:04.860Z,11.40
2022-09-27T01:44:37.812Z,11.50
2022-09-27T01:47:13.699Z,11.50
2022-09-27T01:49:47.777Z,11.50
2022-09-27T01:52:20.475Z,11.50
2022-09-27T01:54:53.034Z,11.50
2022-09-27T01:57:25.753Z,11.50
2022-09-27T01:59:57.642Z,11.50
2022-09-27T02:02:29.502Z,11.50
2022-09-27T02:05:00.017Z,11.50
2022-09-27T02:07:32.981Z,11.60
2022-09-27T02:10:03.828Z,11.60
2022-09-27T02:12:36.663Z,11.60
2022-09-27T02:15:11.427Z,11.60
2022-09-27T02:17:45.776Z,11.60
2022-09-27T02:20:19.014Z,11.60
2022-09-27T02:22:51.868Z,11.60
2022-09-27T02:25:25.542Z,11.60
2022-09-27T02:28:00.679Z,11.50
2022-09-27T02:30:28.761Z,11.50
2022-09-27T02:32:58.233Z,11.50
2022-09-27T02:35:30.206Z,11.40
2022-09-27T02:37:59.493Z,11.40
2022-09-27T02:40:32.945Z,11.40
2022-09-27T02:43:01.749Z,11.40
2022-09-27T02:45:35.220Z,11.40
2022-09-27T02:48:16.438Z,11.40
2022-09-27T02:51:07.944Z,11.40
2022-09-27T02:53:47.215Z,11.30
2022-09-27T02:56:23.918Z,11.30
2022-09-27T02:59:02.756Z,11.30
2022-09-27T03:01:38.365Z,11.30
2022-09-27T03:04:15.257Z,11.30
2022-09-27T03:06:46.341Z,11.20
2022-09-27T03:09:20.707Z,11.20
2022-09-27T03:11:49.219Z,11.20
2022-09-27T03:14:17.290Z,11.20
2022-09-27T03:16:45.423Z,11.20
2022-09-27T03:19:14.965Z,11.20
2022-09-27T03:21:43.228Z,11.20
2022-09-27T03:24:11.306Z,11.20
2022-09-27T03:26:39.529Z,11.20
2022-09-27T03:29:07.551Z,11.10
2022-09-27T03:31:35.489Z,11.00
2022-09-27T03:34:03.738Z,10.90
2022-09-27T03:36:33.121Z,11.00
2022-09-27T03:39:01.120Z,10.90
2022-09-27T03:41:29.607Z,10.90
2022-09-27T03:43:59.856Z,10.80
2022-09-27T03:46:28.236Z,10.80
2022-09-27T03:48:56.824Z,10.80
2022-09-27T03:51:24.906Z,10.80
2022-09-27T03:53:54.480Z,10.80
2022-09-27T03:56:22.414Z,10.80
2022-09-27T03:58:50.322Z,10.70
2022-09-27T04:01:18.376Z,10.70
2022-09-27T04:03:46.443Z,10.70
2022-09-27T04:06:15.018Z,10.70
2022-09-27T04:08:42.993Z,10.70
2022-09-27T04:11:12.861Z,10.70
2022-09-27T04:13:40.838Z,10.70
2022-09-27T04:16:09.014Z,10.70
2022-09-27T04:18:37.014Z,10.70
2022-09-27T04:21:05.374Z,10.70
2022-09-27T04:23:33.901Z,10.70
2022-09-27T04:26:02.026Z,10.70
2022-09-27T04:28:31.871Z,10.60
2022-09-27T04:31:00.209Z,10.60
2022-09-27T04:33:28.331Z,10.60
2022-09-27T04:36:13.665Z,10.60
2022-09-27T04:38:41.782Z,10.60
2022-09-27T04:41:10.570Z,10.70
2022-09-27T04:43:39.900Z,10.60
2022-09-27T04:46:08.223Z,10.60
2022-09-27T04:48:37.535Z,10.60
2022-09-27T04:51:05.594Z,10.50
2022-09-27T04:53:33.839Z,10.50
2022-09-27T04:56:06.621Z,10.60
2022-09-27T04:58:35.811Z,10.60
2022-09-27T05:01:06.244Z,10.60
2022-09-27T05:03:34.583Z,10.60
2022-09-27T05:06:03.000Z,10.50
2022-09-27T05:08:30.982Z,10.60
2022-09-27T05:10:59.007Z,10.50
2022-09-27T05:13:28.030Z,10.60
2022-09-27T05:15:55.962Z,10.60
2022-09-27T05:18:25.401Z,10.50
2022-09-27T05:20:53.643Z,10.50
2022-09-27T05:23:21.548Z,10.50
2022-09-27T05:25:49.579Z,10.50
2022-09-27T05:28:17.740Z,10.50
2022-09-27T05:30:46.181Z,10.50
2022-09-27T05:33:14.285Z,10.60
2022-09-27T05:35:47.560Z,10.50
2022-09-27T05:38:15.817Z,10.50
2022-09-27T05:40:44.560Z,10.50
2022-09-27T05:43:12.707Z,10.50
2022-09-27T05:45:40.792Z,10.50
2022-09-27T05:48:08.828Z,10.50
2022-09-27T05:50:36.838Z,10.50
2022-09-27T05:53:06.512Z,10.50
2022-09-27T05:55:34.814Z,10.50
2022-09-27T05:58:04.530Z,10.50
2022-09-27T06:00:32.962Z,10.50
2022-09-27T06:03:03.748Z,10.60
2022-09-27T06:05:36.297Z,10.60
2022-09-27T06:08:07.305Z,10.60
2022-09-27T06:10:35.987Z,10.70
2022-09-27T06:13:05.750Z,10.70
2022-09-27T06:15:35.151Z,10.70
2022-09-27T06:18:07.636Z,10.70
2022-09-27T06:20:35.925Z,10.70
2022-09-27T06:23:10.442Z,10.70
2022-09-27T06:25:38.740Z,10.70
2022-09-27T06:28:06.881Z,10.70
2022-09-27T06:30:34.832Z,10.70
2022-09-27T06:33:04.253Z,10.70
2022-09-27T06:35:32.418Z,10.70
2022-09-27T06:38:05.008Z,10.70
2022-09-27T06:40:34.589Z,10.70
2022-09-27T06:43:04.251Z,10.80
2022-09-27T06:45:32.657Z,10.80
2022-09-27T06:48:02.599Z,10.80
2022-09-27T06:50:31.277Z,10.80
2022-09-27T06:52:59.047Z,10.90
2022-09-27T06:55:27.502Z,11.00
2022-09-27T06:58:15.210Z,11.00
2022-09-27T07:00:43.190Z,11.00
2022-09-27T07:03:11.853Z,11.10
2022-09-27T07:05:41.868Z,11.10
2022-09-27T07:08:12.045Z,11.10
2022-09-27T07:10:41.420Z,11.10
2022-09-27T07:13:12.354Z,11.10
2022-09-27T07:15:42.600Z,11.20
2022-09-27T07:18:10.774Z,11.20
2022-09-27T07:20:38.854Z,11.20
2022-09-27T07:23:07.741Z,11.20
2022-09-27T07:25:36.191Z,11.30
2022-09-27T07:28:05.816Z,11.30
2022-09-27T07:30:36.215Z,11.30
2022-09-27T07:33:06.734Z,11.40
2022-09-27T07:35:35.205Z,11.40
2022-09-27T07:38:03.734Z,11.40
2022-09-27T07:40:31.809Z,11.50
2022-09-27T07:43:00.604Z,11.50
2022-09-27T07:45:28.786Z,11.60
2022-09-27T07:47:58.203Z,11.70
2022-09-27T07:50:26.533Z,11.80
2022-09-27T07:52:54.464Z,11.70
2022-09-27T07:55:22.606Z,11.70
2022-09-27T07:57:50.656Z,11.70
2022-09-27T08:00:20.904Z,11.70
2022-09-27T08:02:48.939Z,11.80
2022-09-27T08:05:18.310Z,11.80
2022-09-27T08:07:46.142Z,11.80
2022-09-27T08:10:14.157Z,11.70
2022-09-27T08:12:42.003Z,11.70
2022-09-27T08:15:11.122Z,11.60
2022-09-27T08:17:39.038Z,11.70
2022-09-27T08:20:07.758Z,11.70
2022-09-27T08:22:42.023Z,11.70
2022-09-27T08:25:10.801Z,11.80
2022-09-27T08:27:38.934Z,11.90
2022-09-27T08:30:07.669Z,12.00
2022-09-27T08:32:36.914Z,12.10
2022-09-27T08:35:07.472Z,12.30
2022-09-27T08:37:37.312Z,12.40
2022-09-27T08:40:06.303Z,12.40
2022-09-27T08:42:44.255Z,12.50
2022-09-27T08:45:18.619Z,12.50
2022-09-27T08:47:50.375Z,12.50
2022-09-27T08:50:26.746Z,12.50
2022-09-27T08:53:01.650Z,12.50
2022-09-27T08:55:37.892Z,12.50
2022-09-27T08:58:21.906Z,12.50
2022-09-27T09:00:53.316Z,12.40
2022-09-27T09:03:25.684Z,12.40
2022-09-27T09:06:06.376Z,12.50
2022-09-27T09:08:50.831Z,12.40
2022-09-27T09:11:45.501Z,12.50
2022-09-27T09:14:37.359Z,12.60
2022-09-27T09:17:17.155Z,12.70
2022-09-27T09:20:02.070Z,12.60
2022-09-27T09:22:41.843Z,12.60
2022-09-27T09:25:24.685Z,12.60
2022-09-27T09:28:07.995Z,12.60
2022-09-27T09:30:47.147Z,12.60
2022-09-27T09:33:25.771Z,12.60
2022-09-27T09:35:59.057Z,12.60
2022-09-27T09:38:34.719Z,12.60
2022-09-27T09:41:08.471Z,12.70
2022-09-27T09:43:41.964Z,12.80
2022-09-27T09:46:14.461Z,13.00
2022-09-27T09:48:49.849Z,13.10
2022-09-27T09:51:22.372Z,13.40
2022-09-27T09:53:56.004Z,13.50
2022-09-27T09:56:29.063Z,13.60
2022-09-27T09:59:01.343Z,13.60
2022-09-27T10:01:35.254Z,13.70
2022-09-27T10:04:03.734Z,13.70
2022-09-27T10:06:32.347Z,13.70
2022-09-27T10:09:01.379Z,13.70
2022-09-27T10:11:37.376Z,13.60
2022-09-27T10:14:10.182Z,13.60
2022-09-27T10:16:38.825Z,13.50
2022-09-27T10:19:07.801Z,13.40
2022-09-27T10:21:39.930Z,13.40
2022-09-27T10:24:17.615Z,13.50
2022-09-27T10:26:51.075Z,13.60
2022-09-27T10:29:37.020Z,13.50
2022-09-27T10:32:07.171Z,13.60
2022-09-27T10:34:38.527Z,13.60
2022-09-27T10:37:18.797Z,13.70
2022-09-27T10:39:47.883Z,13.70
2022-09-27T10:42:31.931Z,13.80
2022-09-27T10:45:00.274Z,13.80
2022-09-27T10:47:30.021Z,13.90
2022-09-27T10:50:06.807Z,14.00
2022-09-27T10:52:35.021Z,13.90
2022-09-27T10:55:10.151Z,13.90
2022-09-27T10:57:44.341Z,13.70
2022-09-27T11:00:24.373Z,13.40
2022-09-27T11:02:55.139Z,13.20
2022-09-27T11:05:34.189Z,12.90
2022-09-27T11:08:04.625Z,12.80
2022-09-27T11:10:37.164Z,12.50
2022-09-27T11:13:14.495Z,12.30
2022-09-27T11:16:09.408Z,12.20
2022-09-27T11:18:48.249Z,11.90
2022-09-27T11:21:27.211Z,11.90
2022-09-27T11:24:08.262Z,11.80
2022-09-27T11:26:46.778Z,11.80
2022-09-27T11:29:33.948Z,11.80
2022-09-27T11:32:16.341Z,11.90
2022-09-27T11:34:57.634Z,12.00
2022-09-27T11:37:36.102Z,12.20
2022-09-27T11:40:16.692Z,12.20
2022-09-27T11:43:03.355Z,12.30
2022-09-27T11:46:13.443Z,12.20
2022-09-27T11:48:50.494Z,12.30
2022-09-27T11:51:31.818Z,12.40
2022-09-27T11:54:29.053Z,12.50
2022-09-27T11:57:03.666Z,12.50
2022-09-27T12:00:05.232Z,12.50
2022-09-27T12:03:05.954Z,12.40
2022-09-27T12:05:43.478Z,12.40
2022-09-27T12:08:38.542Z,12.40
2022-09-27T12:11:13.426Z,12.40
2022-09-27T12:13:47.762Z,12.30
2022-09-27T12:16:18.974Z,12.30
2022-09-27T12:18:51.838Z,12.40
2022-09-27T12:21:20.885Z,12.60
2022-09-27T12:23:51.461Z,12.90
2022-09-27T12:26:23.430Z,13.00
2022-09-27T12:28:56.128Z,13.10
2022-09-27T12:31:30.598Z,13.00
2022-09-27T12:37:11.161Z,12.90
2022-09-27T12:39:48.174Z,12.70
2022-09-27T12:42:21.352Z,12.70
2022-09-27T12:44:50.993Z,12.70
2022-09-27T12:47:32.219Z,12.70
2022-09-27T12:50:10.099Z,12.80
2022-09-27T12:52:44.878Z,13.00
2022-09-27T12:55:37.275Z,13.10
2022-09-27T12:58:30.051Z,13.20
2022-09-27T13:01:01.498Z,13.30
2022-09-27T13:03:53.494Z,13.40
2022-09-27T13:06:40.484Z,13.60
2022-09-27T13:09:40.753Z,13.60
2022-09-27T13:12:12.234Z,13.50
2022-09-27T13:14:47.297Z,13.40
2022-09-27T13:17:37.698Z,13.30
2022-09-27T13:20:38.567Z,13.20
2022-09-27T13:24:00.383Z,13.20
2022-09-27T13:26:51.435Z,13.10
2022-09-27T13:29:27.474Z,13.00
2022-09-27T13:32:23.323Z,12.90
2022-09-27T13:34:53.802Z,12.70
2022-09-27T13:37:50.900Z,12.60
2022-09-27T13:40:30.064Z,12.50
2022-09-27T13:43:27.005Z,12.40
2022-09-27T13:45:58.287Z,12.40
2022-09-27T13:48:31.793Z,12.50
2022-09-27T13:51:04.250Z,12.50
2022-09-27T13:53:36.523Z,12.50
2022-09-27T13:56:06.699Z,12.60
2022-09-27T13:58:41.611Z,12.70
2022-09-27T14:01:18.033Z,12.70
2022-09-27T14:03:53.835Z,12.80
2022-09-27T14:06:29.455Z,12.80
2022-09-27T14:09:01.448Z,12.90
2022-09-27T14:11:34.944Z,12.80
2022-09-27T14:15:11.520Z,12.80
2022-09-27T14:17:48.372Z,12.70
2022-09-27T14:20:56.439Z,12.70
2022-09-27T14:23:39.699Z,12.60
2022-09-27T14:26:24.791Z,12.50
2022-09-27T14:28:54.850Z,12.50
2022-09-27T14:31:39.744Z,12.50
2022-09-27T14:34:14.358Z,12.50
2022-09-27T14:37:02.807Z,12.50
2022-09-27T14:40:24.725Z,12.50
2022-09-27T14:42:56.104Z,12.50
2022-09-27T14:45:35.222Z,12.50
2022-09-27T14:48:19.131Z,12.40
2022-09-27T15:12:42.343Z,12.00
2022-09-27T15:15:16.718Z,11.80
2022-09-27T15:17:46.338Z,11.80
2022-09-27T15:20:24.759Z,11.80
2022-09-27T15:22:53.466Z,11.70
2022-09-27T15:25:32.422Z,11.70
2022-09-27T15:28:02.524Z,11.70
2022-09-27T15:30:36.007Z,11.70
2022-09-27T15:33:06.347Z,11.70
2022-09-27T15:35:35.877Z,11.70
2022-09-27T15:38:24.898Z,11.70
2022-09-27T15:41:11.197Z,11.70
2022-09-27T15:43:46.187Z,11.60
2022-09-27T15:46:35.810Z,11.60
2022-09-27T15:49:33.741Z,11.60
2022-09-27T15:52:03.189Z,11.60
2022-09-27T15:54:34.892Z,11.60
2022-09-27T15:57:05.889Z,11.70
2022-09-27T15:59:35.918Z,11.70
2022-09-27T16:02:08.494Z,11.70
2022-09-27T16:04:37.892Z,11.70
2022-09-27T16:07:09.097Z,11.70
2022-09-27T16:09:37.294Z,11.70
2022-09-27T16:12:05.660Z,11.70
2022-09-27T16:14:33.503Z,11.70
2022-09-27T16:17:01.477Z,11.60
2022-09-27T16:19:29.555Z,11.60
2022-09-27T16:22:03.461Z,11.50
2022-09-27T16:24:32.109Z,11.50
2022-09-27T16:27:00.479Z,11.40
2022-09-27T16:29:28.640Z,11.30
2022-09-27T16:31:57.155Z,11.20
2022-09-27T16:34:25.050Z,11.20
2022-09-27T16:36:53.099Z,11.10
2022-09-27T16:39:22.377Z,11.00
2022-09-27T16:41:54.707Z,10.90
2022-09-27T16:44:22.760Z,10.90
2022-09-27T16:46:50.877Z,10.80
2022-09-27T16:49:36.184Z,10.70
2022-09-27T16:52:04.259Z,10.60
2022-09-27T16:54:33.809Z,10.50
2022-09-27T16:57:01.941Z,10.40
2022-09-27T16:59:29.862Z,10.30
2022-09-27T17:01:58.426Z,10.20
2022-09-27T17:04:27.704Z,10.10
2022-09-27T17:06:56.101Z,10.00
2022-09-27T17:09:24.062Z,9.90
2022-09-27T17:11:53.258Z,9.90
2022-09-27T17:14:21.242Z,9.80
2022-09-27T17:16:50.594Z,9.80
2022-09-27T17:19:19.272Z,9.70
2022-09-27T17:21:47.719Z,9.70
2022-09-27T17:24:16.132Z,9.70
2022-09-27T17:26:44.541Z,9.60
2022-09-27T17:29:14.804Z,9.60
2022-09-27T17:31:43.303Z,9.60
2022-09-27T17:34:14.748Z,9.60
2022-09-27T17:36:48.208Z,9.50
2022-09-27T17:39:18.220Z,9.50
2022-09-27T17:41:46.227Z,9.50
2022-09-27T17:44:18.353Z,9.40
2022-09-27T17:46:47.351Z,9.40
2022-09-27T17:49:32.925Z,9.30
2022-09-27T17:52:01.391Z,9.30
2022-09-27T17:54:29.402Z,9.20
2022-09-27T17:56:57.387Z,9.10
2022-09-27T17:59:27.020Z,9.00
2022-09-27T18:01:54.958Z,8.90
2022-09-27T18:04:23.231Z,8.90
2022-09-27T18:06:51.295Z,8.80
2022-09-27T18:09:19.778Z,8.80
2022-09-27T18:11:48.429Z,8.70
2022-09-27T18:14:16.637Z,8.70
2022-09-27T18:16:46.250Z,8.60
2022-09-27T18:19:16.756Z,8.50
2022-09-27T18:21:45.263Z,8.50
2022-09-27T18:24:14.254Z,8.50
2022-09-27T18:26:43.866Z,8.40
2022-09-27T18:29:14.153Z,8.40
2022-09-27T18:31:48.190Z,8.30
2022-09-27T18:34:21.371Z,8.30
2022-09-27T18:36:49.480Z,8.20
2022-09-27T18:39:19.680Z,8.20
2022-09-27T18:41:49.460Z,8.10
2022-09-27T18:44:18.621Z,8.00
2022-09-27T18:46:47.328Z,8.10
2022-09-27T18:49:17.607Z,8.10
2022-09-27T18:51:47.171Z,8.00
2022-09-27T18:54:17.366Z,8.00
2022-09-27T18:56:45.781Z,8.00
2022-09-27T18:59:13.839Z,8.00
2022-09-27T19:01:45.202Z,7.90
2022-09-27T19:04:17.513Z,7.90
2022-09-27T19:06:48.626Z,7.80
2022-09-27T19:09:16.522Z,7.70
2022-09-27T19:11:44.665Z,7.70
2022-09-27T19:14:16.548Z,7.60
2022-09-27T19:16:46.994Z,7.60
2022-09-27T19:19:15.595Z,7.60
2022-09-27T19:21:43.824Z,7.50
2022-09-27T19:24:14.172Z,7.40
2022-09-27T19:26:42.742Z,7.40
2022-09-27T19:29:10.711Z,7.30
2022-09-27T19:31:38.670Z,7.30
2022-09-27T19:34:06.722Z,7.30
2022-09-27T19:36:34.881Z,7.30
2022-09-27T19:39:02.839Z,7.30
2022-09-27T19:41:32.235Z,7.20
2022-09-27T19:44:00.195Z,7.30
2022-09-27T19:46:28.431Z,7.30
2022-09-27T19:48:57.069Z,7.30
2022-09-27T19:51:26.791Z,7.30
2022-09-27T19:53:55.397Z,7.30
2022-09-27T19:56:24.178Z,7.20
2022-09-27T19:58:53.654Z,7.10
2022-09-27T20:01:23.588Z,7.00
2022-09-27T20:03:55.514Z,7.00
2022-09-27T20:06:23.590Z,7.00
2022-09-27T20:08:52.607Z,6.90
2022-09-27T20:11:21.914Z,7.00
2022-09-27T20:13:50.512Z,7.00
2022-09-27T20:16:21.519Z,7.10
2022-09-27T20:18:51.267Z,7.10
2022-09-27T20:21:21.107Z,7.10
2022-09-27T20:23:50.257Z,7.10
2022-09-27T20:26:19.932Z,7.20
2022-09-27T20:28:49.537Z,7.10
2022-09-27T20:31:21.026Z,7.20
2022-09-27T20:33:51.064Z,7.20
2022-09-27T20:36:20.781Z,7.20
2022-09-27T20:38:50.569Z,7.20
2022-09-27T20:41:21.580Z,7.20
2022-09-27T20:43:52.814Z,7.20
2022-09-27T20:46:22.935Z,7.10
2022-09-27T20:48:53.661Z,7.00
2022-09-27T20:51:22.295Z,7.00
2022-09-27T20:53:51.347Z,6.90
2022-09-27T20:56:21.231Z,6.90
2022-09-27T20:58:50.533Z,6.70
2022-09-27T21:01:21.983Z,6.70
2022-09-27T21:03:54.099Z,6.60
2022-09-27T21:06:23.333Z,6.60
2022-09-27T21:08:52.162Z,6.50
2022-09-27T21:11:22.080Z,6.40
2022-09-27T21:13:51.813Z,6.40
2022-09-27T21:16:23.005Z,6.30
2022-09-27T21:18:51.882Z,6.30
2022-09-27T21:21:20.518Z,6.20
2022-09-27T21:23:49.711Z,6.20
2022-09-27T21:26:19.547Z,6.10
2022-09-27T21:28:49.787Z,6.10
2022-09-27T21:31:22.546Z,6.10
2022-09-27T21:33:54.644Z,6.20
2022-09-27T21:36:23.675Z,6.20
2022-09-27T21:38:51.959Z,6.20
2022-09-27T21:41:20.634Z,6.30
2022-09-27T21:43:49.795Z,6.30
2022-09-27T21:46:19.340Z,6.30
2022-09-27T21:48:48.942Z,6.30
2022-09-27T21:51:21.587Z,6.40
2022-09-27T21:53:51.943Z,6.40
2022-09-27T21:56:20.629Z,6.40
2022-09-27T21:58:49.284Z,6.50
2022-09-27T22:01:19.094Z,6.50
2022-09-27T22:03:48.140Z,6.60
2022-09-27T22:06:19.591Z,6.60
2022-09-27T22:08:49.485Z,6.60
2022-09-27T22:11:19.509Z,6.60
2022-09-27T22:13:47.595Z,6.60
2022-09-27T22:16:17.526Z,6.50
2022-09-27T22:18:46.386Z,6.50
2022-09-27T22:21:16.449Z,6.50
2022-09-27T22:23:45.903Z,6.60
2022-09-27T22:26:15.694Z,6.60
2022-09-27T22:28:44.553Z,6.60
2022-09-27T22:31:15.175Z,6.60
2022-09-27T22:33:43.310Z,6.60
2022-09-27T22:36:11.278Z,6.60
2022-09-27T22:38:39.120Z,6.70
2022-09-27T22:41:08.711Z,6.70
2022-09-27T22:43:36.821Z,6.70
2022-09-27T22:46:04.767Z,6.70
2022-09-27T22:48:33.836Z,6.80
2022-09-27T22:51:04.293Z,6.80
2022-09-27T22:53:33.309Z,6.80
2022-09-27T22:56:04.611Z,6.80
2022-09-27T22:58:34.985Z,6.80
2022-09-27T23:01:09.137Z,6.90
2022-09-27T23:03:37.272Z,6.90
2022-09-27T23:06:07.300Z,6.90
2022-09-27T23:08:36.386Z,6.90
2022-09-27T23:11:06.034Z,6.90
2022-09-27T23:13:37.519Z,6.90
2022-09-27T23:16:07.544Z,6.90
2022-09-27T23:18:35.910Z,6.90
2022-09-27T23:21:07.330Z,6.90
2022-09-27T23:23:36.310Z,6.90
2022-09-27T23:26:06.754Z,6.80
2022-09-27T23:28:36.357Z,6.80
2022-09-27T23:31:08.540Z,6.70
2022-09-27T23:33:37.435Z,6.60
2022-09-27T23:36:05.813Z,6.60
2022-09-27T23:38:34.174Z,6.50
2022-09-27T23:41:02.548Z,6.50
2022-09-27T23:43:30.813Z,6.50
2022-09-27T23:46:00.181Z,6.50
2022-09-27T23:48:28.415Z,6.50
2022-09-27T23:50:57.363Z,6.50
2022-09-27T23:53:25.820Z,6.50
2022-09-27T23:56:04.710Z,6.50
2022-09-27T23:58:34.257Z,6.50
